CheckWX is a tool to help pilots better visualize weather data.  It is not intended as a substitute for an official pre-flight weather briefing.

09:01:42 UTC

KCSV METAR
Crossville Memorial-Whitson Field Airport
Crossville, Tennessee, USA
Current

9 mins ago

KCSV 140853Z AUTO 18007KT 150V210 10SM CLR 00/M10 A3023 RMK AO2 SLP244 T00001100 53002
Observed
Nov-14 @ 08:53 UTC
Wind
  • 180° at 7 KTS
Visibility
10 SM
Flight Rules
VFR
Cloud Levels
  • Clear skies
Temperature
C / 32°F
Dewpoint
-10°C / 14°F
Humidity
47%
Altimeter
30.23" Hg
Pressure
1023.72 hPa
Previous

1 hour ago

KCSV 140753Z AUTO 19006KT 10SM CLR 01/M10 A3021 RMK AO2 SLP239 T00061100
Observed
Nov-14 @ 07:53 UTC
Wind
  • 190° at 6 KTS
Visibility
10 SM
Flight Rules
VFR
Cloud Levels
  • Clear skies
Temperature
C / 34°F
Dewpoint
-10°C / 14°F
Humidity
44%
Altimeter
30.21" Hg
Pressure
1023.02 hPa
Previous

2 hours ago

KCSV 140653Z AUTO 18007KT 10SM CLR 01/M11 A3021 RMK AO2 SLP240 T00111106
Observed
Nov-14 @ 06:53 UTC
Wind
  • 180° at 7 KTS
Visibility
10 SM
Flight Rules
VFR
Cloud Levels
  • Clear skies
Temperature
C / 34°F
Dewpoint
-11°C / 12°F
Humidity
41%
Altimeter
30.21" Hg
Pressure
1023.02 hPa